Time;durP1;ratioP1;P1;durP2;ratioP2;P2;SDS_P1;SDS_P2;PMS_P1;PMS_P2;Temp;Humidity;BMP_temperature;BMP_pressure;BME280_temperature;BME280_humidity;BME280_pressure;Samples;Min_cycle;Max_cycle;Signal;HPM_P1;HPM_P2
2021/10/17 00:00:27;;;;;;;11.20;7.85;;;6.00;97.20;;;;;;5030599;28;20395;-70
2021/10/17 00:02:53;;;;;;;10.23;7.50;;;6.00;97.20;;;;;;5027466;28;20029;-70
2021/10/17 00:05:21;;;;;;;9.52;7.25;;;5.90;97.20;;;;;;5011385;28;20509;-71
2021/10/17 00:07:47;;;;;;;13.10;7.63;;;5.90;97.20;;;;;;5028988;28;20056;-70
2021/10/17 00:10:17;;;;;;;11.75;8.63;;;5.90;97.30;;;;;;5029661;28;20033;-70
2021/10/17 00:12:43;;;;;;;19.33;8.23;;;5.90;97.30;;;;;;5026976;28;20045;-69
2021/10/17 00:15:12;;;;;;;19.23;8.50;;;5.80;97.30;;;;;;5023099;28;20017;-70
2021/10/17 00:17:38;;;;;;;46.35;8.68;;;5.80;97.30;;;;;;5004404;28;20029;-70
2021/10/17 00:20:06;;;;;;;27.90;9.45;;;5.80;97.30;;;;;;5011918;28;20067;-70
2021/10/17 00:22:31;;;;;;;24.90;9.07;;;5.70;97.30;;;;;;5023127;28;20025;-70
2021/10/17 00:24:58;;;;;;;32.17;9.25;;;5.70;97.40;;;;;;5027884;28;20540;-70
2021/10/17 00:27:24;;;;;;;40.78;8.75;;;5.70;97.40;;;;;;5029942;28;20065;-70
2021/10/17 00:29:49;;;;;;;59.70;8.77;;;5.70;97.50;;;;;;5030457;28;20064;-70
2021/10/17 00:32:15;;;;;;;41.45;9.38;;;5.60;97.40;;;;;;5029636;28;20550;-70
2021/10/17 00:34:41;;;;;;;10.93;8.27;;;5.60;97.40;;;;;;5028747;28;20033;-70
2021/10/17 00:37:07;;;;;;;13.88;7.97;;;5.60;97.60;;;;;;5029547;28;20017;-70
2021/10/17 00:39:35;;;;;;;53.42;8.88;;;5.60;97.50;;;;;;5029656;28;20075;-70
2021/10/17 00:42:04;;;;;;;29.27;7.85;;;5.60;97.70;;;;;;5029214;28;20070;-70
2021/10/17 00:44:30;;;;;;;25.65;8.10;;;5.70;97.70;;;;;;5028275;28;20442;-70
2021/10/17 00:46:56;;;;;;;62.15;8.80;;;5.70;97.60;;;;;;5029523;28;20045;-70
2021/10/17 00:49:21;;;;;;;65.28;9.32;;;5.60;97.60;;;;;;5030356;28;20029;-70
2021/10/17 00:51:47;;;;;;;45.50;9.05;;;5.60;97.70;;;;;;5019915;28;20036;-70
2021/10/17 00:54:14;;;;;;;51.47;8.65;;;5.60;97.70;;;;;;5010360;28;20409;-70
2021/10/17 00:56:41;;;;;;;19.95;9.02;;;5.70;97.80;;;;;;5025222;28;20473;-70
2021/10/17 00:59:08;;;;;;;13.80;8.30;;;5.70;97.80;;;;;;5029997;28;20107;-70
2021/10/17 01:01:35;;;;;;;79.70;9.75;;;5.60;97.70;;;;;;5011946;28;20025;-70
2021/10/17 01:04:01;;;;;;;111.10;9.73;;;5.70;97.90;;;;;;5027150;28;20033;-71
2021/10/17 01:06:27;;;;;;;64.15;9.02;;;5.70;97.80;;;;;;5029522;28;20025;-71
2021/10/17 01:08:53;;;;;;;12.20;7.75;;;5.60;97.80;;;;;;5011340;28;20036;-70
2021/10/17 01:11:19;;;;;;;33.42;7.95;;;5.60;97.90;;;;;;5029662;28;20557;-70
2021/10/17 01:13:44;;;;;;;45.15;7.63;;;5.60;97.90;;;;;;5028095;28;20038;-70
2021/10/17 01:16:10;;;;;;;36.58;8.02;;;5.60;97.80;;;;;;5029160;28;20079;-70
2021/10/17 01:18:35;;;;;;;36.10;7.75;;;5.60;97.80;;;;;;5029273;28;20086;-70
2021/10/17 01:21:01;;;;;;;14.43;8.00;;;5.50;97.80;;;;;;5026285;28;20033;-70
2021/10/17 01:23:27;;;;;;;47.05;8.25;;;5.50;98.00;;;;;;5022630;28;20113;-70
2021/10/17 01:25:53;;;;;;;21.02;7.57;;;5.60;98.00;;;;;;5020976;28;20025;-70
2021/10/17 01:28:19;;;;;;;17.67;7.32;;;5.50;98.00;;;;;;5029227;28;20094;-70
2021/10/17 01:30:45;;;;;;;13.32;7.40;;;5.50;98.00;;;;;;5029664;28;20068;-70
2021/10/17 01:33:11;;;;;;;15.77;7.68;;;5.50;98.10;;;;;;5027389;28;20026;-70
2021/10/17 01:35:37;;;;;;;13.70;7.40;;;5.50;98.20;;;;;;5029235;28;20038;-70
2021/10/17 01:38:04;;;;;;;16.33;8.10;;;5.50;98.40;;;;;;5028641;28;20736;-70
2021/10/17 01:40:30;;;;;;;30.42;8.27;;;5.50;98.30;;;;;;5023308;28;20026;-70
2021/10/17 01:42:56;;;;;;;31.00;8.30;;;5.60;98.20;;;;;;5025895;28;20026;-70
2021/10/17 01:45:22;;;;;;;10.65;7.00;;;5.50;98.00;;;;;;5024700;28;20605;-70
2021/10/17 01:47:49;;;;;;;24.90;8.13;;;5.50;98.20;;;;;;5011447;28;20029;-70
2021/10/17 01:50:15;;;;;;;10.60;7.38;;;5.40;98.20;;;;;;5024214;28;20356;-70
2021/10/17 01:55:09;;;;;;;30.25;8.40;;;5.40;98.30;;;;;;5009284;28;20058;-67
2021/10/17 01:57:35;;;;;;;35.30;8.02;;;5.40;98.20;;;;;;5012342;28;20029;-67
2021/10/17 02:00:02;;;;;;;26.00;7.65;;;5.40;98.20;;;;;;5012619;28;20101;-67
2021/10/17 02:02:27;;;;;;;63.70;7.80;;;5.40;98.20;;;;;;5012243;28;20022;-67
2021/10/17 02:04:53;;;;;;;22.52;6.70;;;5.30;98.20;;;;;;4983370;28;20081;-67
2021/10/17 02:07:18;;;;;;;22.17;6.80;;;5.30;98.20;;;;;;4992908;28;20046;-67
2021/10/17 02:09:44;;;;;;;35.00;7.55;;;5.20;98.30;;;;;;4992322;28;20061;-67
2021/10/17 02:12:10;;;;;;;47.88;7.18;;;5.20;98.30;;;;;;4993008;28;20030;-67
2021/10/17 02:14:36;;;;;;;25.60;6.72;;;5.20;98.20;;;;;;4992151;28;20073;-66
2021/10/17 02:17:05;;;;;;;27.73;6.70;;;5.00;98.00;;;;;;4993170;28;20058;-67
2021/10/17 02:19:31;;;;;;;27.80;6.53;;;4.90;97.90;;;;;;4992099;28;20033;-67
2021/10/17 02:21:56;;;;;;;25.83;6.70;;;4.90;98.10;;;;;;4982314;28;20026;-66
2021/10/17 02:24:22;;;;;;;49.80;6.53;;;4.80;98.30;;;;;;4984373;28;20033;-66
2021/10/17 02:26:47;;;;;;;14.75;5.95;;;4.80;98.30;;;;;;4992883;28;20065;-67
2021/10/17 02:29:14;;;;;;;42.05;6.43;;;4.70;98.20;;;;;;4992707;28;20034;-66
2021/10/17 02:31:39;;;;;;;26.27;6.20;;;4.70;98.40;;;;;;4975366;28;20026;-66
2021/10/17 02:34:05;;;;;;;54.83;6.40;;;4.60;98.30;;;;;;4992017;28;20066;-66
2021/10/17 02:36:30;;;;;;;42.03;7.10;;;4.70;98.30;;;;;;4992515;28;20031;-66
2021/10/17 02:38:56;;;;;;;46.92;7.03;;;4.60;98.40;;;;;;4992059;28;20497;-66
2021/10/17 02:41:22;;;;;;;34.85;6.68;;;4.60;98.40;;;;;;4992590;28;20438;-66
2021/10/17 02:43:47;;;;;;;52.40;7.05;;;4.50;98.40;;;;;;4992021;28;20038;-66
2021/10/17 02:46:13;;;;;;;13.45;6.55;;;4.50;98.40;;;;;;4994634;28;20036;-66
2021/10/17 02:48:39;;;;;;;18.65;6.53;;;4.40;98.50;;;;;;4994342;28;20058;-66
2021/10/17 02:51:04;;;;;;;31.58;7.47;;;4.40;98.60;;;;;;4992424;28;20052;-66
2021/10/17 02:53:30;;;;;;;32.78;7.50;;;4.50;98.70;;;;;;4990539;28;20034;-66
2021/10/17 02:55:56;;;;;;;14.45;7.30;;;4.50;98.70;;;;;;4992113;28;20034;-66
2021/10/17 02:58:21;;;;;;;16.83;7.90;;;4.50;98.60;;;;;;4992280;28;20026;-66
2021/10/17 03:00:47;;;;;;;15.43;8.20;;;4.50;98.60;;;;;;4992350;28;20056;-66
2021/10/17 03:03:12;;;;;;;18.05;7.55;;;4.40;98.70;;;;;;4990934;28;20031;-66
2021/10/17 03:05:38;;;;;;;18.05;8.35;;;4.50;98.70;;;;;;4991905;28;20582;-66
2021/10/17 03:08:04;;;;;;;11.88;7.30;;;4.50;98.80;;;;;;4991146;28;20539;-66
2021/10/17 03:10:29;;;;;;;18.25;7.65;;;4.40;98.70;;;;;;4992107;28;20034;-66
2021/10/17 03:12:55;;;;;;;19.83;7.95;;;4.40;98.70;;;;;;4991548;28;20049;-66
2021/10/17 03:15:21;;;;;;;26.15;8.80;;;4.40;98.70;;;;;;4991587;28;20204;-66
2021/10/17 03:17:47;;;;;;;27.08;8.60;;;4.40;98.70;;;;;;4989595;28;20041;-66
2021/10/17 03:20:13;;;;;;;18.63;8.55;;;4.40;98.70;;;;;;4991634;28;20085;-66
2021/10/17 03:22:39;;;;;;;30.13;9.52;;;4.40;98.80;;;;;;4984518;28;20034;-66
2021/10/17 03:25:05;;;;;;;21.08;8.98;;;4.40;98.80;;;;;;4991979;28;20022;-66
2021/10/17 03:27:30;;;;;;;24.98;8.95;;;4.40;98.80;;;;;;4990386;28;20455;-66
2021/10/17 03:29:57;;;;;;;25.85;8.75;;;4.30;98.70;;;;;;4992057;28;20101;-66
2021/10/17 03:32:22;;;;;;;18.52;8.40;;;4.30;98.70;;;;;;4990376;28;20023;-66
2021/10/17 03:34:48;;;;;;;20.83;8.02;;;4.20;98.70;;;;;;4999515;28;20324;-66
2021/10/17 03:37:14;;;;;;;14.38;7.28;;;4.20;98.80;;;;;;4994274;28;20475;-66
2021/10/17 03:39:39;;;;;;;45.30;9.00;;;4.10;98.70;;;;;;4991346;28;20486;-66
2021/10/17 03:42:05;;;;;;;28.17;8.07;;;4.10;98.80;;;;;;4986488;28;20026;-66
2021/10/17 03:44:31;;;;;;;33.65;7.88;;;4.10;98.80;;;;;;4990886;28;20038;-66
2021/10/17 03:46:56;;;;;;;14.63;7.45;;;4.10;98.90;;;;;;4995078;28;20022;-66
2021/10/17 03:49:22;;;;;;;23.38;7.72;;;4.00;98.90;;;;;;4994278;28;20547;-66
2021/10/17 03:51:47;;;;;;;24.55;8.13;;;4.00;98.90;;;;;;5003275;28;20025;-66
2021/10/17 03:54:13;;;;;;;18.70;8.13;;;4.10;98.90;;;;;;4990231;28;20178;-66
2021/10/17 03:56:38;;;;;;;21.83;7.82;;;4.00;98.80;;;;;;4991071;28;20038;-66
2021/10/17 03:59:04;;;;;;;25.13;8.07;;;4.00;98.80;;;;;;4989658;28;20129;-66
2021/10/17 04:01:30;;;;;;;17.98;8.85;;;3.90;98.90;;;;;;4990985;28;20414;-66
2021/10/17 04:03:56;;;;;;;15.10;8.32;;;3.90;98.90;;;;;;4978220;28;20018;-66
2021/10/17 04:06:21;;;;;;;16.77;8.65;;;3.90;98.90;;;;;;4990539;28;20026;-66
2021/10/17 04:08:47;;;;;;;17.33;9.05;;;3.80;98.90;;;;;;4991017;28;20066;-66
2021/10/17 04:11:13;;;;;;;19.52;8.73;;;3.80;99.00;;;;;;4990299;28;20022;-66
2021/10/17 04:13:39;;;;;;;12.45;8.65;;;3.80;99.00;;;;;;4989641;28;20033;-66
2021/10/17 04:16:05;;;;;;;19.38;9.13;;;3.80;99.00;;;;;;4989782;28;20113;-66
2021/10/17 04:18:31;;;;;;;20.73;8.30;;;3.80;99.10;;;;;;4990577;28;20033;-66
2021/10/17 04:20:57;;;;;;;14.48;8.32;;;3.80;99.10;;;;;;4976437;28;20402;-66
2021/10/17 04:23:23;;;;;;;31.00;8.80;;;3.80;99.10;;;;;;4988545;28;20022;-66
2021/10/17 04:25:49;;;;;;;16.75;9.00;;;3.80;99.10;;;;;;4990624;28;20053;-66
2021/10/17 04:28:14;;;;;;;42.72;9.98;;;3.80;99.10;;;;;;4990039;28;20022;-65
2021/10/17 04:30:40;;;;;;;17.52;8.77;;;3.80;99.20;;;;;;4972990;28;20030;-65
2021/10/17 04:33:05;;;;;;;28.30;9.40;;;3.80;99.10;;;;;;4989085;28;20489;-66
2021/10/17 04:35:37;;;;;;;31.27;8.88;;;3.80;99.10;;;;;;4989348;28;20058;-66
2021/10/17 04:38:05;;;;;;;20.73;8.98;;;3.70;99.10;;;;;;4990510;28;20436;-65
2021/10/17 04:40:31;;;;;;;28.15;8.85;;;3.70;99.10;;;;;;4990348;28;20023;-66
2021/10/17 04:42:56;;;;;;;40.80;9.45;;;3.70;99.10;;;;;;4991581;28;20390;-66
2021/10/17 04:45:22;;;;;;;33.45;9.10;;;3.70;99.20;;;;;;4972802;28;20039;-66
2021/10/17 04:47:47;;;;;;;24.77;8.00;;;3.70;99.10;;;;;;4991226;28;20367;-66
2021/10/17 04:50:13;;;;;;;20.35;6.25;;;3.60;99.10;;;;;;4991644;28;20038;-65
2021/10/17 04:52:39;;;;;;;29.17;7.60;;;3.60;99.10;;;;;;4988705;28;20370;-65
2021/10/17 04:55:07;;;;;;;18.13;8.52;;;3.60;99.20;;;;;;4990115;28;20085;-66
2021/10/17 04:57:33;;;;;;;20.52;8.15;;;3.60;99.30;;;;;;4972469;28;20038;-66
2021/10/17 04:59:59;;;;;;;40.90;7.65;;;3.60;99.30;;;;;;4989229;28;20026;-65
2021/10/17 05:02:25;;;;;;;44.53;7.32;;;3.70;99.20;;;;;;4988575;28;20336;-66
2021/10/17 05:04:50;;;;;;;37.35;8.27;;;3.60;99.20;;;;;;4984435;28;20460;-66
2021/10/17 05:07:16;;;;;;;34.92;8.43;;;3.60;99.20;;;;;;4986081;28;20034;-66
2021/10/17 05:09:42;;;;;;;17.15;7.18;;;3.60;99.20;;;;;;4989311;28;20029;-66
2021/10/17 05:12:07;;;;;;;31.52;7.72;;;3.60;99.20;;;;;;4990164;28;20565;-66
2021/10/17 05:14:33;;;;;;;45.42;7.97;;;3.50;99.20;;;;;;4988982;28;20471;-66
2021/10/17 05:16:58;;;;;;;31.08;7.90;;;3.50;99.30;;;;;;5002073;28;20042;-66
2021/10/17 05:19:24;;;;;;;40.30;8.73;;;3.50;99.30;;;;;;4992259;28;20038;-65
2021/10/17 05:21:49;;;;;;;16.85;7.97;;;3.60;99.30;;;;;;4981383;28;20712;-66
2021/10/17 05:24:15;;;;;;;22.20;7.70;;;3.50;99.30;;;;;;4985730;28;20040;-66
2021/10/17 05:26:40;;;;;;;19.83;7.75;;;3.50;99.20;;;;;;4990590;28;20026;-66
2021/10/17 05:29:06;;;;;;;23.83;7.43;;;3.50;99.30;;;;;;4992849;28;20042;-66
2021/10/17 05:31:31;;;;;;;17.13;7.38;;;3.50;99.30;;;;;;4994509;28;20629;-66
2021/10/17 05:33:57;;;;;;;37.42;7.97;;;3.50;99.30;;;;;;4993111;28;20444;-66
2021/10/17 05:36:23;;;;;;;44.05;7.68;;;3.50;99.40;;;;;;4993671;28;20041;-65
2021/10/17 05:38:48;;;;;;;29.48;7.57;;;3.50;99.40;;;;;;4992983;28;20031;-67
2021/10/17 05:41:14;;;;;;;41.92;8.38;;;3.40;99.30;;;;;;4992799;28;20038;-66
2021/10/17 05:43:39;;;;;;;46.00;7.55;;;3.40;99.30;;;;;;4992118;28;20027;-65
2021/10/17 05:46:05;;;;;;;32.35;7.45;;;3.40;99.40;;;;;;4994934;28;20065;-66
2021/10/17 05:48:31;;;;;;;30.40;6.93;;;3.40;99.40;;;;;;4993340;28;20031;-64
2021/10/17 05:50:56;;;;;;;43.53;6.72;;;3.40;99.40;;;;;;4990964;28;20022;-66
2021/10/17 05:53:22;;;;;;;30.90;6.20;;;3.40;99.30;;;;;;4991723;28;20030;-66
2021/10/17 05:55:47;;;;;;;44.70;7.10;;;3.40;99.20;;;;;;4992515;28;20027;-66
2021/10/17 05:58:13;;;;;;;28.38;7.30;;;3.30;99.30;;;;;;4993323;28;20030;-65
2021/10/17 06:00:39;;;;;;;9.35;5.90;;;3.30;99.30;;;;;;4993601;28;20566;-66
2021/10/17 06:03:04;;;;;;;23.50;7.07;;;3.30;99.30;;;;;;4991166;28;20034;-66
2021/10/17 06:05:30;;;;;;;13.20;7.22;;;3.20;99.40;;;;;;4993656;28;20065;-65
2021/10/17 06:07:56;;;;;;;13.77;6.93;;;3.30;99.40;;;;;;4992120;28;20501;-65
2021/10/17 06:10:21;;;;;;;25.42;6.95;;;3.30;99.50;;;;;;4992828;28;20034;-65
2021/10/17 06:12:47;;;;;;;18.30;7.68;;;3.30;99.50;;;;;;4992505;28;20026;-66
2021/10/17 06:15:13;;;;;;;22.75;7.72;;;3.20;99.40;;;;;;4992375;28;20510;-65
2021/10/17 06:17:38;;;;;;;24.98;7.70;;;3.30;99.50;;;;;;4985317;28;20033;-65
2021/10/17 06:20:05;;;;;;;16.90;7.55;;;3.30;99.50;;;;;;4991915;28;20096;-65
2021/10/17 06:22:31;;;;;;;21.23;8.48;;;3.20;99.30;;;;;;4992066;28;20023;-64
2021/10/17 06:24:56;;;;;;;13.93;8.32;;;3.20;99.40;;;;;;4991404;28;20092;-65
2021/10/17 06:27:22;;;;;;;16.27;8.48;;;3.20;99.50;;;;;;4993111;28;20382;-64
2021/10/17 06:29:47;;;;;;;27.90;9.23;;;3.20;99.50;;;;;;4992525;28;20509;-65
2021/10/17 06:32:13;;;;;;;20.25;9.00;;;3.20;99.50;;;;;;4993909;28;20734;-64
2021/10/17 06:34:39;;;;;;;22.60;9.48;;;3.20;99.60;;;;;;4992447;28;20038;-65
2021/10/17 06:37:05;;;;;;;16.05;8.85;;;3.20;99.60;;;;;;4993811;28;20018;-64
2021/10/17 06:39:30;;;;;;;15.52;8.07;;;3.30;99.60;;;;;;4992082;28;20028;-65
2021/10/17 06:41:56;;;;;;;21.15;8.55;;;3.30;99.60;;;;;;4993051;28;20086;-66
2021/10/17 06:44:21;;;;;;;16.48;8.57;;;3.40;99.70;;;;;;4993338;28;20034;-66
2021/10/17 06:46:49;;;;;;;14.85;8.27;;;3.40;99.70;;;;;;5007141;28;20356;-65
2021/10/17 06:49:14;;;;;;;14.15;8.07;;;3.50;99.70;;;;;;4992611;28;20117;-64
2021/10/17 06:51:40;;;;;;;10.80;6.95;;;3.60;99.80;;;;;;4992691;28;20718;-65
2021/10/17 06:54:06;;;;;;;14.52;8.13;;;3.70;99.90;;;;;;4991041;28;20101;-66
2021/10/17 06:56:31;;;;;;;10.88;6.93;;;3.70;99.90;;;;;;4975622;28;20032;-66
2021/10/17 06:58:57;;;;;;;10.45;6.22;;;3.70;99.70;;;;;;4987317;28;20031;-65
2021/10/17 07:01:22;;;;;;;10.82;7.00;;;3.70;99.70;;;;;;4993167;28;20053;-65
2021/10/17 07:03:48;;;;;;;11.07;6.95;;;3.70;99.80;;;;;;4991049;28;20054;-65
2021/10/17 07:06:15;;;;;;;10.57;7.00;;;3.80;99.90;;;;;;4992439;28;20034;-65
2021/10/17 07:08:40;;;;;;;11.88;7.78;;;3.80;99.90;;;;;;4988878;28;20026;-65
2021/10/17 07:11:06;;;;;;;9.60;6.53;;;3.90;99.90;;;;;;4990874;28;20102;-65
2021/10/17 07:13:32;;;;;;;12.82;7.20;;;4.00;99.90;;;;;;4991105;28;20023;-65
2021/10/17 07:15:57;;;;;;;11.63;7.63;;;4.00;99.90;;;;;;4974249;28;20538;-65
2021/10/17 07:18:23;;;;;;;10.00;7.53;;;4.10;99.90;;;;;;4990644;28;20022;-64
2021/10/17 07:20:50;;;;;;;10.57;7.35;;;4.10;99.80;;;;;;4991084;28;20029;-65
2021/10/17 07:23:16;;;;;;;7.95;6.00;;;4.20;99.90;;;;;;4989234;28;20041;-65
2021/10/17 07:25:41;;;;;;;4.85;4.00;;;5.00;99.70;;;;;;4973803;28;20027;-65
2021/10/17 07:28:07;;;;;;;4.28;3.88;;;5.70;99.50;;;;;;4990551;28;20029;-64
2021/10/17 07:30:33;;;;;;;3.58;3.25;;;6.10;99.30;;;;;;4975034;28;20049;-65
2021/10/17 07:32:58;;;;;;;3.30;3.00;;;6.40;99.20;;;;;;4989986;28;20026;-65
2021/10/17 07:35:24;;;;;;;3.60;3.30;;;6.50;99.00;;;;;;4990048;28;20100;-65
2021/10/17 07:37:49;;;;;;;5.85;4.40;;;6.90;98.50;;;;;;4990824;28;20022;-66
2021/10/17 07:40:15;;;;;;;6.68;4.90;;;7.30;98.30;;;;;;4988492;28;20741;-64
2021/10/17 07:42:40;;;;;;;7.22;5.63;;;7.70;98.30;;;;;;4982010;28;20050;-64
2021/10/17 07:45:07;;;;;;;4.47;4.00;;;7.80;98.50;;;;;;4989916;28;20035;-63
2021/10/17 07:47:33;;;;;;;5.07;4.32;;;7.70;98.40;;;;;;4992389;28;20019;-65
2021/10/17 07:49:59;;;;;;;4.47;3.80;;;7.70;98.40;;;;;;4992246;28;20430;-64
2021/10/17 07:52:25;;;;;;;4.72;4.30;;;7.80;98.50;;;;;;5022315;23;20099;-67
2021/10/17 07:54:50;;;;;;;4.07;3.50;;;8.00;98.70;;;;;;5027488;28;20071;-68
2021/10/17 07:57:16;;;;;;;3.95;3.60;;;8.20;99.00;;;;;;5022743;28;20394;-67
2021/10/17 07:59:42;;;;;;;4.47;4.00;;;8.40;99.00;;;;;;5019027;28;20025;-68
2021/10/17 08:02:07;;;;;;;4.95;4.45;;;8.60;98.80;;;;;;5006322;28;20041;-67
2021/10/17 08:04:35;;;;;;;5.82;4.30;;;8.50;98.50;;;;;;5011864;28;20026;-68
2021/10/17 08:07:03;;;;;;;6.80;4.78;;;8.40;98.40;;;;;;5028580;28;20425;-68
2021/10/17 08:09:29;;;;;;;6.40;4.82;;;8.30;98.60;;;;;;5022379;28;20025;-68
2021/10/17 08:11:55;;;;;;;6.95;5.57;;;8.30;98.50;;;;;;5016667;28;20022;-68
2021/10/17 08:14:20;;;;;;;9.45;7.68;;;8.30;98.60;;;;;;4997732;28;20499;-67
2021/10/17 08:16:46;;;;;;;7.88;6.55;;;8.30;98.70;;;;;;5021195;28;20037;-68
2021/10/17 08:19:11;;;;;;;7.88;5.53;;;8.40;98.80;;;;;;5029880;28;20049;-68
2021/10/17 08:21:37;;;;;;;6.43;5.35;;;8.30;98.50;;;;;;5009936;28;20075;-68
2021/10/17 08:24:03;;;;;;;6.90;5.63;;;8.30;98.60;;;;;;5008576;28;20045;-67
2021/10/17 08:26:29;;;;;;;7.07;5.80;;;8.20;98.50;;;;;;5023712;28;20045;-68
2021/10/17 08:28:54;;;;;;;8.13;6.43;;;8.20;98.50;;;;;;5025983;28;20040;-69
2021/10/17 08:31:20;;;;;;;9.90;6.25;;;8.00;98.50;;;;;;5022557;28;20030;-68
2021/10/17 08:33:45;;;;;;;8.25;5.97;;;8.00;98.50;;;;;;5025735;28;20057;-68
2021/10/17 08:36:11;;;;;;;7.57;5.82;;;8.00;98.80;;;;;;5004780;28;20056;-68
2021/10/17 08:38:36;;;;;;;8.57;6.20;;;8.00;98.70;;;;;;5006369;28;20450;-69
2021/10/17 08:41:02;;;;;;;7.40;5.68;;;8.00;98.90;;;;;;5027664;28;20029;-68
2021/10/17 08:43:28;;;;;;;8.55;6.20;;;8.10;99.10;;;;;;5024211;28;20037;-69
2021/10/17 08:45:54;;;;;;;8.85;6.88;;;8.20;99.10;;;;;;5029510;28;20132;-68
2021/10/17 08:48:24;;;;;;;9.23;6.57;;;8.20;99.00;;;;;;5029120;28;20079;-69
2021/10/17 08:50:52;;;;;;;8.60;6.82;;;8.30;99.10;;;;;;5028365;28;20386;-68
2021/10/17 08:53:18;;;;;;;9.68;6.95;;;8.40;99.10;;;;;;5025268;28;20039;-68
2021/10/17 08:55:44;;;;;;;9.43;6.68;;;8.50;99.20;;;;;;5028832;28;20421;-68
2021/10/17 08:58:09;;;;;;;25.58;14.35;;;8.60;99.20;;;;;;5027439;28;20018;-68
2021/10/17 09:00:35;;;;;;;11.23;7.70;;;8.60;99.20;;;;;;5025793;28;20037;-67
2021/10/17 09:03:02;;;;;;;9.90;7.30;;;8.70;99.30;;;;;;5022460;28;20029;-68
2021/10/17 09:05:37;;;;;;;9.10;6.68;;;8.90;99.40;;;;;;5021043;28;20040;-68
2021/10/17 09:08:03;;;;;;;7.47;6.55;;;9.10;99.30;;;;;;5024766;28;20017;-67
2021/10/17 09:10:30;;;;;;;9.15;6.13;;;9.30;99.30;;;;;;5028498;28;20026;-67
2021/10/17 09:13:15;;;;;;;7.20;6.38;;;9.50;99.30;;;;;;5020718;28;20050;-67
2021/10/17 09:15:43;;;;;;;9.52;6.70;;;9.60;99.10;;;;;;5014554;28;20026;-68
2021/10/17 09:18:19;;;;;;;8.98;6.75;;;9.60;99.00;;;;;;5015935;28;20481;-68
2021/10/17 09:20:48;;;;;;;8.65;6.88;;;9.80;99.10;;;;;;5027512;28;20041;-68
2021/10/17 09:23:21;;;;;;;12.15;7.82;;;9.90;99.10;;;;;;5025392;28;20076;-68
2021/10/17 09:25:47;;;;;;;11.23;7.47;;;10.00;99.10;;;;;;5030130;28;20030;-68
2021/10/17 09:28:17;;;;;;;11.80;7.35;;;10.00;99.00;;;;;;5029488;28;20076;-67
2021/10/17 09:30:43;;;;;;;9.25;7.13;;;10.20;99.20;;;;;;5018639;28;20800;-68
2021/10/17 09:33:10;;;;;;;9.52;6.68;;;10.30;99.30;;;;;;5019399;28;20602;-67
2021/10/17 09:35:35;;;;;;;10.00;7.78;;;10.60;99.40;;;;;;5026378;28;20029;-67
2021/10/17 09:38:02;;;;;;;13.20;9.32;;;10.90;99.50;;;;;;5029110;28;20026;-69
2021/10/17 09:40:28;;;;;;;14.32;9.55;;;11.10;99.40;;;;;;5029939;28;20383;-69
2021/10/17 09:43:21;;;;;;;13.90;9.70;;;11.30;99.30;;;;;;5023632;28;20053;-68
2021/10/17 09:45:47;;;;;;;;;;;11.50;99.00;;;;;;5021137;28;20026;-68
2021/10/17 09:48:29;;;;;;;17.17;10.65;;;11.60;99.20;;;;;;5008399;28;19914;-68
2021/10/17 09:51:15;;;;;;;;;;;11.70;99.10;;;;;;5002946;28;20021;-67
2021/10/17 09:53:46;;;;;;;15.45;10.00;;;11.90;99.30;;;;;;5013162;28;19921;-68
2021/10/17 09:56:29;;;;;;;15.98;9.60;;;11.90;99.10;;;;;;5010068;28;20018;-68
2021/10/17 09:58:55;;;;;;;15.35;9.82;;;12.00;99.00;;;;;;5023681;28;20022;-68
2021/10/17 10:01:25;;;;;;;14.68;10.45;;;12.10;99.00;;;;;;5024514;28;20026;-68
2021/10/17 10:03:55;;;;;;;16.17;10.63;;;12.20;99.00;;;;;;5021509;28;20040;-67
2021/10/17 10:06:22;;;;;;;13.68;9.75;;;12.30;98.90;;;;;;5014038;28;20393;-66
2021/10/17 10:08:49;;;;;;;14.00;9.27;;;12.40;98.80;;;;;;5018935;28;20026;-67
2021/10/17 10:11:20;;;;;;;13.50;9.60;;;12.50;98.70;;;;;;5006704;28;20025;-68
2021/10/17 10:13:47;;;;;;;14.10;9.65;;;12.50;98.40;;;;;;5023661;28;20165;-70
2021/10/17 10:16:14;;;;;;;14.25;8.73;;;12.40;98.40;;;;;;5025798;28;20100;-71
2021/10/17 10:18:40;;;;;;;16.25;9.95;;;12.50;98.40;;;;;;5024713;28;20359;-70
2021/10/17 10:21:05;;;;;;;12.95;9.55;;;12.50;98.40;;;;;;5010712;28;20056;-67
2021/10/17 10:23:32;;;;;;;13.40;8.60;;;12.60;98.40;;;;;;5026032;28;20029;-68
2021/10/17 10:25:58;;;;;;;12.25;7.50;;;12.60;98.30;;;;;;5028125;28;20743;-67
2021/10/17 10:28:26;;;;;;;14.48;8.20;;;12.70;98.20;;;;;;5024296;28;20022;-67
2021/10/17 10:30:52;;;;;;;13.60;9.25;;;12.70;98.10;;;;;;5022622;28;20025;-67
2021/10/17 10:33:20;;;;;;;13.48;9.15;;;12.70;98.00;;;;;;5018775;28;20022;-67
2021/10/17 10:36:13;;;;;;;11.98;8.05;;;12.70;98.10;;;;;;5027690;28;20037;-67
2021/10/17 10:38:51;;;;;;;11.43;7.72;;;12.80;97.80;;;;;;4998396;28;20048;-67
2021/10/17 10:41:28;;;;;;;11.98;8.70;;;12.90;97.70;;;;;;5007967;28;20026;-67
2021/10/17 10:44:14;;;;;;;13.13;8.95;;;12.90;97.70;;;;;;5010660;28;20085;-67
2021/10/17 10:46:41;;;;;;;14.55;8.98;;;13.00;97.50;;;;;;5016775;28;20026;-67
2021/10/17 10:49:06;;;;;;;12.55;8.73;;;12.90;97.80;;;;;;5023468;28;20377;-66
2021/10/17 10:51:36;;;;;;;12.48;8.52;;;13.00;97.70;;;;;;5020251;28;20033;-68
2021/10/17 10:54:02;;;;;;;12.75;8.68;;;13.00;97.60;;;;;;5024250;28;20428;-68
2021/10/17 10:56:44;;;;;;;11.35;7.88;;;13.10;97.60;;;;;;5028802;28;20055;-66
2021/10/17 10:59:11;;;;;;;12.48;8.75;;;13.20;97.10;;;;;;5027399;28;20089;-67
2021/10/17 11:02:14;;;;;;;12.85;8.65;;;13.20;97.50;;;;;;5028026;28;20526;-67
2021/10/17 11:04:44;;;;;;;11.95;8.63;;;13.40;97.20;;;;;;5026606;28;20034;-67
2021/10/17 11:07:17;;;;;;;11.05;8.15;;;13.40;97.30;;;;;;5024676;28;20580;-67
2021/10/17 11:09:43;;;;;;;11.25;8.30;;;13.50;97.00;;;;;;5024083;28;20033;-67
2021/10/17 11:12:09;;;;;;;11.05;8.10;;;13.60;97.10;;;;;;5028549;28;20022;-67
2021/10/17 11:14:35;;;;;;;13.55;8.18;;;13.60;96.90;;;;;;5027648;28;20075;-66
2021/10/17 11:17:08;;;;;;;12.60;8.30;;;13.70;96.90;;;;;;5027052;28;20025;-66
2021/10/17 11:19:34;;;;;;;12.32;7.95;;;13.80;96.70;;;;;;5017290;28;20060;-66
2021/10/17 11:22:01;;;;;;;11.90;8.70;;;13.80;96.70;;;;;;5023646;28;20226;-67
2021/10/17 11:24:27;;;;;;;10.13;7.50;;;14.00;96.80;;;;;;5024645;28;20029;-66
2021/10/17 11:27:13;;;;;;;10.63;8.23;;;14.00;96.70;;;;;;5017657;28;20474;-67
2021/10/17 11:29:40;;;;;;;21.25;15.20;;;14.20;96.50;;;;;;4993902;28;20060;-67
2021/10/17 11:32:07;;;;;;;12.02;9.13;;;14.30;96.70;;;;;;5027113;28;20785;-66
2021/10/17 11:34:33;;;;;;;12.60;8.85;;;14.40;96.70;;;;;;5030633;28;20529;-67
2021/10/17 11:37:22;;;;;;;11.00;8.35;;;14.60;96.60;;;;;;5029118;28;20032;-68
2021/10/17 11:39:57;;;;;;;11.27;8.10;;;14.80;96.30;;;;;;5020654;28;20719;-67
2021/10/17 11:42:27;;;;;;;12.73;8.73;;;14.90;96.30;;;;;;5011182;28;20034;-67
2021/10/17 11:44:55;;;;;;;12.60;8.50;;;15.10;96.40;;;;;;5006606;28;20064;-67
2021/10/17 11:47:21;;;;;;;13.57;8.90;;;15.40;96.30;;;;;;5033460;28;20041;-66
2021/10/17 11:49:50;;;;;;;13.02;9.55;;;15.50;96.00;;;;;;5025265;28;20049;-67
2021/10/17 11:52:17;;;;;;;11.30;8.18;;;15.50;95.70;;;;;;5025567;28;20037;-66
2021/10/17 11:54:47;;;;;;;10.80;7.68;;;15.50;95.40;;;;;;4995283;28;20041;-66
2021/10/17 11:57:32;;;;;;;10.25;7.28;;;15.50;95.40;;;;;;5022942;28;20034;-67
2021/10/17 12:00:04;;;;;;;8.02;6.22;;;15.60;95.10;;;;;;5020954;28;20112;-67
2021/10/17 12:02:36;;;;;;;8.63;6.25;;;15.60;95.10;;;;;;5017691;28;20061;-67
2021/10/17 12:05:03;;;;;;;12.15;8.75;;;15.50;95.00;;;;;;5021335;28;20490;-67
2021/10/17 12:07:29;;;;;;;12.65;8.50;;;15.50;95.20;;;;;;5025103;28;20021;-67
2021/10/17 12:09:55;;;;;;;11.55;8.02;;;15.60;95.10;;;;;;5026116;28;20772;-66
2021/10/17 12:12:22;;;;;;;13.55;8.23;;;15.70;95.10;;;;;;5025004;28;20030;-67
2021/10/17 12:15:17;;;;;;;11.57;8.25;;;15.90;95.30;;;;;;5025016;28;20076;-67
2021/10/17 12:17:43;;;;;;;11.70;8.02;;;16.10;95.00;;;;;;5023031;28;20087;-67
2021/10/17 12:20:16;;;;;;;10.43;7.95;;;16.20;95.00;;;;;;5023462;28;20452;-66
2021/10/17 12:22:45;;;;;;;12.43;9.43;;;16.30;94.90;;;;;;5019960;28;20030;-67
2021/10/17 12:25:13;;;;;;;12.20;8.75;;;16.40;94.80;;;;;;5026668;28;20038;-67
2021/10/17 12:27:42;;;;;;;12.55;8.88;;;16.50;94.80;;;;;;5026044;28;20037;-67
2021/10/17 12:30:17;;;;;;;10.52;8.10;;;16.70;94.70;;;;;;5026396;28;20026;-68
2021/10/17 12:32:50;;;;;;;10.80;8.50;;;16.90;94.40;;;;;;5001342;28;20444;-67
2021/10/17 12:35:37;;;;;;;11.98;8.00;;;17.10;94.40;;;;;;5017757;28;20091;-67
2021/10/17 12:38:06;;;;;;;9.35;7.53;;;17.30;94.10;;;;;;5014758;28;20025;-67
2021/10/17 12:40:34;;;;;;;11.27;7.68;;;17.50;94.20;;;;;;5005473;28;20037;-67
2021/10/17 12:43:04;;;;;;;10.20;8.00;;;17.70;94.10;;;;;;5023792;28;20097;-67
2021/10/17 12:45:32;;;;;;;10.70;8.45;;;17.80;93.70;;;;;;5020226;28;20042;-67
2021/10/17 12:47:59;;;;;;;11.77;8.77;;;17.80;93.70;;;;;;5020427;28;20492;-67